createdAt,value
2022-08-03T00:00:32.632Z,62.24
2022-08-03T00:03:00.561Z,62.02
2022-08-03T00:05:28.471Z,61.80
2022-08-03T00:07:56.189Z,61.35
2022-08-03T00:10:25.354Z,61.37
2022-08-03T00:12:53.165Z,61.83
2022-08-03T00:15:21.399Z,61.64
2022-08-03T00:17:52.144Z,61.18
2022-08-03T00:20:22.403Z,61.23
2022-08-03T00:22:50.190Z,60.54
2022-08-03T00:25:19.176Z,60.47
2022-08-03T00:27:48.541Z,60.19
2022-08-03T00:30:18.680Z,60.67
2022-08-03T00:32:47.670Z,60.51
2022-08-03T00:35:34.368Z,60.29
2022-08-03T00:38:04.041Z,60.23
2022-08-03T00:40:31.809Z,60.48
2022-08-03T00:43:03.086Z,60.17
2022-08-03T00:45:32.932Z,60.10
2022-08-03T00:48:01.696Z,60.14
2022-08-03T00:50:32.376Z,59.98
2022-08-03T00:53:01.189Z,60.22
2022-08-03T00:55:29.089Z,60.57
2022-08-03T00:57:57.777Z,60.61
2022-08-03T01:00:28.851Z,60.76
2022-08-03T01:02:56.629Z,60.52
2022-08-03T01:05:24.658Z,60.86
2022-08-03T01:08:05.023Z,61.08
2022-08-03T01:10:41.016Z,61.33
2022-08-03T01:14:04.250Z,61.56
2022-08-03T01:16:12.328Z,60.51
2022-08-03T01:18:46.287Z,60.06
2022-08-03T01:21:19.177Z,60.83
2022-08-03T01:24:05.211Z,60.83
2022-08-03T01:26:54.952Z,59.70
2022-08-03T01:29:53.428Z,58.84
2022-08-03T01:33:02.408Z,58.95
2022-08-03T01:35:14.772Z,59.00
2022-08-03T01:37:48.865Z,57.97
2022-08-03T01:40:18.678Z,58.96
2022-08-03T01:42:48.875Z,58.83
2022-08-03T01:45:20.161Z,58.58
2022-08-03T01:47:49.419Z,57.95
2022-08-03T01:50:20.674Z,58.18
2022-08-03T01:52:49.278Z,58.30
2022-08-03T01:55:20.709Z,57.95
2022-08-03T01:58:05.490Z,58.72
2022-08-03T02:00:37.772Z,57.80
2022-08-03T02:03:07.790Z,57.29
2022-08-03T02:05:36.888Z,57.53
2022-08-03T02:08:08.791Z,57.13
2022-08-03T02:10:38.760Z,56.40
2022-08-03T02:13:09.451Z,56.65
2022-08-03T02:15:40.133Z,57.10
2022-08-03T02:18:10.352Z,56.83
2022-08-03T02:20:39.371Z,56.19
2022-08-03T02:23:07.612Z,56.49
2022-08-03T02:25:38.793Z,57.05
2022-08-03T02:28:11.718Z,57.27
2022-08-03T02:30:44.183Z,57.22
2022-08-03T02:33:15.127Z,57.20
2022-08-03T02:35:45.074Z,58.12
2022-08-03T02:38:14.690Z,57.48
2022-08-03T02:40:45.826Z,57.70
2022-08-03T02:43:19.056Z,57.77
2022-08-03T02:45:51.119Z,57.29
2022-08-03T02:48:22.706Z,57.09
2022-08-03T02:50:52.846Z,57.22
2022-08-03T02:53:22.501Z,56.81
2022-08-03T02:55:51.133Z,56.77
2022-08-03T02:58:21.252Z,55.98
2022-08-03T03:00:52.815Z,56.41
2022-08-03T03:03:23.080Z,56.89
2022-08-03T03:05:57.622Z,56.01
2022-08-03T03:08:28.608Z,57.46
2022-08-03T03:10:58.333Z,57.72
2022-08-03T03:13:28.066Z,58.27
2022-08-03T03:16:00.724Z,58.00
2022-08-03T03:18:29.975Z,57.76
2022-08-03T03:21:00.046Z,57.94
2022-08-03T03:23:29.949Z,58.40
2022-08-03T03:25:59.356Z,58.29
2022-08-03T03:28:27.777Z,58.55
2022-08-03T03:30:57.437Z,59.24
2022-08-03T03:33:28.255Z,59.90
2022-08-03T03:35:57.147Z,60.21
2022-08-03T03:38:24.853Z,60.80
2022-08-03T03:40:53.093Z,60.71
2022-08-03T03:43:20.846Z,61.27
2022-08-03T03:45:48.798Z,61.50
2022-08-03T03:48:18.138Z,62.06
2022-08-03T03:50:46.564Z,62.89
2022-08-03T03:53:15.901Z,63.23
2022-08-03T03:55:59.640Z,63.34
2022-08-03T03:58:32.017Z,63.29
2022-08-03T04:01:00.062Z,63.08
2022-08-03T04:03:29.312Z,62.03
2022-08-03T04:06:15.027Z,61.18
2022-08-03T04:09:15.080Z,59.63
2022-08-03T04:11:47.669Z,59.24
2022-08-03T04:14:19.188Z,58.24
2022-08-03T04:16:50.185Z,56.71
2022-08-03T04:19:28.161Z,55.52
2022-08-03T04:22:00.126Z,54.12
2022-08-03T04:24:34.000Z,53.64
2022-08-03T04:27:05.695Z,52.28
2022-08-03T04:29:36.045Z,52.09
2022-08-03T04:32:09.187Z,51.46
2022-08-03T04:34:38.605Z,50.51
2022-08-03T04:37:12.064Z,48.64
2022-08-03T04:39:43.212Z,48.26
2022-08-03T04:42:14.810Z,48.39
2022-08-03T04:44:45.467Z,48.63
2022-08-03T04:47:13.331Z,46.88
2022-08-03T04:49:43.219Z,46.30
2022-08-03T04:52:11.275Z,45.53
2022-08-03T04:54:50.723Z,43.81
2022-08-03T04:57:23.269Z,43.64
2022-08-03T04:59:58.234Z,42.15
2022-08-03T05:02:29.793Z,43.36
2022-08-03T05:04:59.550Z,43.54
2022-08-03T05:07:35.952Z,43.04
2022-08-03T05:10:11.707Z,43.51
2022-08-03T05:12:44.558Z,41.24
2022-08-03T05:15:12.827Z,41.24
2022-08-03T05:17:40.945Z,41.70
2022-08-03T05:20:11.951Z,42.70
2022-08-03T05:22:39.854Z,40.84
2022-08-03T05:25:08.208Z,40.39
2022-08-03T05:27:36.131Z,39.82
2022-08-03T05:30:30.855Z,39.20
2022-08-03T05:32:51.913Z,39.89
2022-08-03T05:36:00.848Z,41.13
2022-08-03T05:38:09.169Z,40.98
2022-08-03T05:40:37.117Z,41.23
2022-08-03T05:43:05.038Z,41.59
2022-08-03T05:45:32.765Z,40.89
2022-08-03T05:48:00.654Z,40.72
2022-08-03T05:50:29.751Z,41.78
2022-08-03T05:52:58.725Z,40.87
2022-08-03T05:55:26.667Z,41.82
2022-08-03T05:57:55.176Z,40.88
2022-08-03T06:00:25.072Z,40.44
2022-08-03T06:02:53.657Z,39.69
2022-08-03T06:05:21.588Z,40.40
2022-08-03T06:07:50.775Z,40.41
2022-08-03T06:10:35.409Z,39.94
2022-08-03T06:13:03.914Z,39.60
2022-08-03T06:15:33.336Z,38.95
2022-08-03T06:18:02.159Z,39.25
2022-08-03T06:20:30.386Z,39.01
2022-08-03T06:23:01.185Z,39.01
2022-08-03T06:25:29.434Z,38.87
2022-08-03T06:27:57.236Z,38.65
2022-08-03T06:30:25.559Z,39.15
2022-08-03T06:32:53.421Z,39.42
2022-08-03T06:35:21.257Z,38.93
2022-08-03T06:37:50.908Z,38.14
2022-08-03T06:40:24.488Z,39.21
2022-08-03T06:42:52.597Z,37.93
2022-08-03T06:45:20.524Z,38.07
2022-08-03T06:47:48.245Z,38.29
2022-08-03T06:50:17.267Z,37.46
2022-08-03T06:52:46.483Z,38.01
2022-08-03T06:55:14.391Z,38.46
2022-08-03T06:57:43.842Z,38.31
2022-08-03T07:00:12.901Z,38.13
2022-08-03T07:02:40.803Z,38.84
2022-08-03T07:05:09.710Z,38.16
2022-08-03T07:07:37.678Z,37.99
2022-08-03T07:10:06.839Z,37.71
2022-08-03T07:12:35.592Z,37.47
2022-08-03T07:15:05.976Z,37.50
2022-08-03T07:17:35.958Z,36.82
2022-08-03T07:20:06.566Z,36.77
2022-08-03T07:22:34.482Z,36.28
2022-08-03T07:25:02.500Z,36.51
2022-08-03T07:27:30.463Z,36.38
2022-08-03T07:30:00.811Z,36.70
2022-08-03T07:32:31.477Z,35.60
2022-08-03T07:35:01.217Z,35.20
2022-08-03T07:37:30.182Z,35.06
2022-08-03T07:39:58.332Z,35.21
2022-08-03T07:42:26.154Z,34.36
2022-08-03T07:44:53.978Z,34.59
2022-08-03T07:47:24.026Z,33.98
2022-08-03T07:49:53.492Z,33.96
2022-08-03T07:52:39.815Z,35.33
2022-08-03T07:55:08.727Z,35.96
2022-08-03T07:57:36.818Z,35.90
2022-08-03T08:00:07.429Z,34.80
2022-08-03T08:02:35.370Z,36.04
2022-08-03T08:05:05.928Z,36.26
2022-08-03T08:07:34.052Z,35.72
2022-08-03T08:10:01.767Z,35.21
2022-08-03T08:12:29.589Z,33.97
2022-08-03T08:14:57.371Z,34.17
2022-08-03T08:17:25.138Z,34.12
2022-08-03T08:19:53.505Z,33.12
2022-08-03T08:22:30.594Z,33.64
2022-08-03T08:24:59.749Z,32.75
2022-08-03T08:28:25.290Z,32.21
2022-08-03T08:30:20.541Z,31.53
2022-08-03T08:32:48.969Z,30.92
2022-08-03T08:35:17.716Z,30.49
2022-08-03T08:37:51.214Z,30.51
2022-08-03T08:40:22.247Z,29.98
2022-08-03T08:42:58.852Z,30.08
2022-08-03T08:45:27.974Z,30.76
2022-08-03T08:48:01.643Z,30.46
2022-08-03T08:50:31.615Z,30.20
2022-08-03T08:53:04.063Z,30.86
2022-08-03T08:56:00.126Z,30.09
2022-08-03T08:58:22.737Z,30.18
2022-08-03T09:00:51.910Z,29.74
2022-08-03T09:03:29.192Z,30.30
2022-08-03T09:05:59.954Z,30.08
2022-08-03T09:08:30.119Z,30.07
2022-08-03T09:10:57.988Z,30.04
2022-08-03T09:13:26.264Z,30.13
2022-08-03T09:16:12.976Z,30.18
2022-08-03T09:18:41.536Z,29.91
2022-08-03T09:21:31.057Z,29.98
2022-08-03T09:24:05.910Z,30.42
2022-08-03T09:26:36.345Z,30.32
2022-08-03T09:29:12.808Z,30.81
2022-08-03T09:31:44.665Z,31.26
2022-08-03T09:34:14.463Z,31.11
2022-08-03T09:36:44.072Z,31.19
2022-08-03T09:39:15.054Z,30.91
2022-08-03T09:41:44.431Z,31.61
2022-08-03T09:44:24.618Z,31.16
2022-08-03T09:46:54.839Z,30.53
2022-08-03T09:49:23.100Z,30.03
2022-08-03T09:52:31.313Z,29.97
2022-08-03T09:54:40.736Z,30.04
2022-08-03T09:57:08.611Z,30.55
2022-08-03T09:59:36.624Z,30.37
2022-08-03T10:02:22.892Z,31.08
2022-08-03T10:04:52.764Z,29.74
2022-08-03T10:07:21.628Z,30.08
2022-08-03T10:10:30.317Z,30.38
2022-08-03T10:12:48.798Z,30.37
2022-08-03T10:16:22.448Z,29.56
2022-08-03T10:18:05.775Z,30.18
2022-08-03T10:20:38.436Z,29.40
2022-08-03T10:23:06.953Z,29.75
2022-08-03T10:25:40.679Z,29.44
2022-08-03T10:28:11.396Z,30.05
2022-08-03T10:30:42.265Z,29.63
2022-08-03T10:33:49.720Z,29.66
2022-08-03T10:36:07.111Z,29.04
2022-08-03T10:38:39.628Z,29.84
2022-08-03T10:41:09.708Z,30.01
2022-08-03T10:43:48.982Z,29.58
2022-08-03T10:46:19.341Z,29.48
2022-08-03T10:48:48.231Z,29.30
2022-08-03T10:51:20.300Z,28.60
2022-08-03T10:53:55.260Z,29.29
2022-08-03T10:57:13.585Z,29.04
2022-08-03T11:00:00.524Z,29.38
2022-08-03T11:03:17.674Z,28.59
2022-08-03T11:05:48.220Z,28.00
2022-08-03T11:08:32.774Z,29.38
2022-08-03T11:11:03.302Z,28.11
2022-08-03T11:13:33.888Z,27.89
2022-08-03T11:16:21.943Z,28.40
2022-08-03T11:18:57.414Z,27.56
2022-08-03T11:21:53.945Z,27.71
2022-08-03T11:25:02.087Z,27.06
2022-08-03T11:27:32.196Z,27.59
2022-08-03T11:30:03.781Z,28.13
2022-08-03T11:32:54.062Z,27.88
2022-08-03T11:35:23.961Z,27.32
2022-08-03T11:38:13.824Z,27.36
2022-08-03T11:40:44.915Z,27.51
2022-08-03T11:43:45.306Z,27.34
2022-08-03T11:46:28.414Z,27.50
2022-08-03T11:49:09.739Z,27.34
2022-08-03T11:51:38.849Z,26.92
2022-08-03T11:54:07.608Z,27.84
2022-08-03T11:56:46.000Z,26.80
2022-08-03T11:59:20.090Z,27.43
2022-08-03T12:01:51.047Z,27.03
2022-08-03T12:04:18.818Z,27.52
2022-08-03T12:07:00.327Z,26.89
2022-08-03T12:09:28.243Z,26.55
2022-08-03T12:11:59.623Z,27.17
2022-08-03T12:14:49.417Z,26.69
2022-08-03T12:17:19.859Z,27.16
2022-08-03T12:19:48.031Z,27.45
2022-08-03T12:22:16.813Z,27.78
2022-08-03T12:24:47.259Z,27.67
2022-08-03T12:27:25.099Z,27.10
2022-08-03T12:29:58.484Z,27.47
2022-08-03T12:32:28.742Z,28.00
2022-08-03T12:35:00.846Z,27.77
2022-08-03T12:37:30.299Z,27.65
2022-08-03T12:40:07.784Z,28.93
2022-08-03T12:42:39.495Z,27.55
2022-08-03T12:45:20.001Z,28.30
2022-08-03T12:47:57.004Z,27.88
2022-08-03T12:50:26.777Z,27.10
2022-08-03T12:52:54.583Z,27.27
2022-08-03T12:55:23.683Z,27.52
2022-08-03T12:57:51.782Z,27.28
2022-08-03T13:00:28.933Z,27.01
2022-08-03T13:03:38.608Z,26.51
2022-08-03T13:05:51.636Z,27.61
2022-08-03T13:08:20.912Z,26.71
2022-08-03T13:10:49.355Z,26.84
2022-08-03T13:13:17.199Z,27.21
2022-08-03T13:15:47.922Z,27.49
2022-08-03T13:18:17.663Z,27.03
2022-08-03T13:20:45.677Z,27.49
2022-08-03T13:23:22.025Z,26.76
2022-08-03T13:25:55.022Z,27.27
2022-08-03T13:28:24.497Z,27.76
2022-08-03T13:30:54.190Z,27.29
2022-08-03T13:33:23.313Z,27.06
2022-08-03T13:35:51.061Z,26.41
2022-08-03T13:38:18.875Z,26.36
2022-08-03T13:40:49.543Z,26.74
2022-08-03T13:43:17.927Z,27.20
2022-08-03T13:45:51.292Z,26.53
2022-08-03T13:48:37.679Z,26.99
2022-08-03T13:51:11.772Z,27.36
2022-08-03T13:53:50.447Z,27.00
2022-08-03T13:56:18.225Z,26.82
2022-08-03T13:58:45.905Z,26.72
2022-08-03T14:01:13.662Z,26.96
2022-08-03T14:03:42.825Z,26.74
2022-08-03T14:06:10.597Z,26.30
2022-08-03T14:08:38.337Z,26.73
2022-08-03T14:11:06.216Z,25.89
2022-08-03T14:13:34.842Z,26.34
2022-08-03T14:16:02.711Z,26.88
2022-08-03T14:18:33.830Z,26.41
2022-08-03T14:21:06.205Z,26.36
2022-08-03T14:23:35.186Z,26.52
2022-08-03T14:26:02.939Z,26.33
2022-08-03T14:28:31.094Z,27.42
2022-08-03T14:30:58.947Z,26.65
2022-08-03T14:33:28.326Z,27.28
2022-08-03T14:35:56.238Z,26.48
2022-08-03T14:38:25.648Z,26.69
2022-08-03T14:40:53.769Z,25.80
2022-08-03T14:43:22.706Z,25.91
2022-08-03T14:45:52.406Z,24.77
2022-08-03T14:50:34.053Z,24.85
2022-08-03T14:51:08.534Z,23.94
2022-08-03T14:53:37.619Z,24.07
2022-08-03T14:56:10.108Z,24.97
2022-08-03T14:58:38.769Z,24.05
2022-08-03T15:02:04.675Z,23.34
2022-08-03T15:03:55.239Z,24.60
2022-08-03T15:06:23.000Z,24.97
2022-08-03T15:09:20.817Z,24.91
2022-08-03T15:11:39.989Z,24.33
2022-08-03T15:14:09.551Z,24.45
2022-08-03T15:16:37.888Z,23.90
2022-08-03T15:20:03.359Z,23.73
2022-08-03T15:21:53.501Z,23.56
2022-08-03T15:24:22.621Z,24.99
2022-08-03T15:26:50.453Z,25.14
2022-08-03T15:30:08.849Z,24.49
2022-08-03T15:32:09.400Z,24.34
2022-08-03T15:34:37.626Z,23.63
2022-08-03T15:37:15.142Z,23.48
2022-08-03T15:39:59.345Z,23.59
2022-08-03T15:42:29.402Z,23.74
2022-08-03T15:44:57.407Z,25.08
2022-08-03T15:47:25.334Z,25.43
2022-08-03T15:49:53.112Z,24.73
2022-08-03T15:52:20.870Z,24.01
2022-08-03T15:54:48.629Z,24.12
2022-08-03T15:57:17.937Z,23.35
2022-08-03T15:59:45.711Z,24.22
2022-08-03T16:02:13.436Z,23.67
2022-08-03T16:04:41.153Z,24.16
2022-08-03T16:07:08.968Z,23.57
2022-08-03T16:09:43.200Z,24.24
2022-08-03T16:12:16.034Z,24.61
2022-08-03T16:14:54.097Z,24.36
2022-08-03T16:17:24.218Z,25.17
2022-08-03T16:19:55.153Z,24.55
2022-08-03T16:22:23.768Z,23.62
2022-08-03T16:24:51.740Z,23.26
2022-08-03T16:27:56.745Z,22.83
2022-08-03T16:30:10.486Z,22.59
2022-08-03T16:32:39.894Z,22.25
2022-08-03T16:35:08.718Z,22.63
2022-08-03T16:37:38.641Z,23.01
2022-08-03T16:40:19.188Z,23.91
2022-08-03T16:42:47.609Z,22.66
2022-08-03T16:45:16.837Z,22.41
2022-08-03T16:47:44.795Z,22.51
2022-08-03T16:50:18.937Z,22.08
2022-08-03T16:52:47.850Z,21.59
2022-08-03T16:55:22.263Z,21.94
2022-08-03T16:58:05.530Z,22.19
2022-08-03T17:00:41.232Z,21.69
2022-08-03T17:03:12.757Z,22.13
2022-08-03T17:05:48.078Z,21.96
2022-08-03T17:08:18.969Z,22.42
2022-08-03T17:10:54.177Z,22.53
2022-08-03T17:13:23.107Z,22.73
2022-08-03T17:16:10.442Z,23.49
2022-08-03T17:18:42.223Z,24.49
2022-08-03T17:21:18.560Z,25.98
2022-08-03T17:23:56.118Z,26.86
2022-08-03T17:26:30.616Z,27.55
2022-08-03T17:29:13.216Z,27.24
2022-08-03T17:31:49.375Z,28.07
2022-08-03T17:34:18.811Z,27.34
2022-08-03T17:37:03.846Z,28.05
2022-08-03T17:39:57.498Z,28.20
2022-08-03T17:42:38.776Z,28.94
2022-08-03T17:45:07.944Z,29.52
2022-08-03T17:47:44.918Z,29.23
2022-08-03T17:50:33.269Z,30.55
2022-08-03T17:53:07.095Z,30.50
2022-08-03T17:55:57.093Z,29.76
2022-08-03T17:58:39.599Z,31.15
2022-08-03T18:01:59.778Z,31.26
2022-08-03T18:04:30.213Z,30.89
2022-08-03T18:07:11.153Z,30.96
2022-08-03T18:10:06.695Z,31.99
2022-08-03T18:12:53.132Z,32.08
2022-08-03T18:15:30.415Z,32.50
2022-08-03T18:18:10.478Z,32.29
2022-08-03T18:20:42.698Z,33.00
2022-08-03T18:23:20.485Z,33.96
2022-08-03T18:25:58.287Z,33.95
2022-08-03T18:28:28.039Z,35.38
2022-08-03T18:30:56.714Z,35.46
2022-08-03T18:34:16.703Z,35.67
2022-08-03T18:36:22.066Z,36.53
2022-08-03T18:38:59.355Z,37.47
2022-08-03T18:41:32.180Z,37.31
2022-08-03T18:44:07.082Z,36.91
2022-08-03T18:46:48.202Z,38.36
2022-08-03T18:49:29.696Z,40.30
2022-08-03T18:52:04.672Z,39.28
2022-08-03T18:55:01.156Z,39.25
2022-08-03T18:57:40.405Z,39.44
2022-08-03T19:00:14.075Z,40.00
2022-08-03T19:02:50.110Z,40.18
2022-08-03T19:05:21.362Z,39.34
2022-08-03T19:07:59.854Z,38.96
2022-08-03T19:10:32.235Z,38.71
2022-08-03T19:13:11.364Z,39.91
2022-08-03T19:15:51.448Z,41.53
2022-08-03T19:18:22.044Z,43.20
2022-08-03T19:20:54.734Z,45.14
2022-08-03T19:23:26.511Z,45.01
2022-08-03T19:26:03.296Z,45.60
2022-08-03T19:28:32.182Z,46.68
2022-08-03T19:31:02.694Z,46.57
2022-08-03T19:33:55.798Z,46.39
2022-08-03T19:36:27.516Z,45.97
2022-08-03T19:38:58.366Z,46.56
2022-08-03T19:41:31.237Z,47.41
2022-08-03T19:44:11.607Z,45.99
2022-08-03T19:46:47.934Z,46.13
2022-08-03T19:49:17.438Z,44.55
2022-08-03T19:52:01.561Z,45.83
2022-08-03T19:54:39.661Z,45.14
2022-08-03T19:57:19.859Z,46.02
2022-08-03T19:59:51.689Z,45.59
2022-08-03T20:02:27.249Z,45.48
2022-08-03T20:04:56.909Z,46.16
2022-08-03T20:07:25.574Z,45.77
2022-08-03T20:09:56.590Z,46.75
2022-08-03T20:12:28.061Z,47.15
2022-08-03T20:14:57.895Z,47.92
2022-08-03T20:17:56.972Z,47.86
2022-08-03T20:20:14.414Z,48.40
2022-08-03T20:22:47.673Z,48.86
2022-08-03T20:25:21.120Z,48.31
2022-08-03T20:28:07.776Z,48.23
2022-08-03T20:30:43.735Z,48.95
2022-08-03T20:33:11.508Z,49.82
2022-08-03T20:35:41.947Z,50.43
2022-08-03T20:38:13.662Z,50.74
2022-08-03T20:40:42.831Z,51.73
2022-08-03T20:43:10.664Z,52.07
2022-08-03T20:45:58.589Z,52.03
2022-08-03T20:48:29.986Z,51.78
2022-08-03T20:50:58.155Z,51.93
2022-08-03T20:53:57.491Z,51.90
2022-08-03T20:56:16.258Z,52.17
2022-08-03T20:58:50.744Z,52.88
2022-08-03T21:01:27.913Z,52.87
2022-08-03T21:04:06.999Z,53.24
2022-08-03T21:06:39.418Z,53.21
2022-08-03T21:09:12.554Z,53.70
2022-08-03T21:11:45.577Z,53.97
2022-08-03T21:14:19.894Z,54.03
2022-08-03T21:16:51.499Z,54.27
2022-08-03T21:19:21.954Z,54.09
2022-08-03T21:21:50.647Z,54.52
2022-08-03T21:24:22.736Z,54.60
2022-08-03T21:26:54.897Z,55.09
2022-08-03T21:29:22.890Z,54.97
2022-08-03T21:31:51.775Z,55.38
2022-08-03T21:34:21.021Z,55.48
2022-08-03T21:36:49.321Z,55.35
2022-08-03T21:39:17.168Z,55.40
2022-08-03T21:41:44.980Z,55.87
2022-08-03T21:44:14.218Z,55.63
2022-08-03T21:46:43.412Z,55.83
2022-08-03T21:50:04.248Z,55.86
2022-08-03T21:52:06.038Z,55.97
2022-08-03T21:54:36.421Z,56.06
2022-08-03T21:57:06.968Z,56.41
2022-08-03T21:59:38.958Z,56.78
2022-08-03T22:02:11.476Z,57.12
2022-08-03T22:04:55.406Z,56.90
2022-08-03T22:07:24.311Z,57.23
2022-08-03T22:09:53.081Z,57.84
2022-08-03T22:12:23.735Z,58.27
2022-08-03T22:15:00.932Z,59.01
2022-08-03T22:17:53.701Z,59.10
2022-08-03T22:20:22.547Z,58.81
2022-08-03T22:22:55.715Z,59.27
2022-08-03T22:25:28.929Z,59.39
2022-08-03T22:27:58.629Z,60.04
2022-08-03T22:30:27.926Z,59.93
2022-08-03T22:32:57.601Z,59.91
2022-08-03T22:35:26.937Z,59.91
2022-08-03T22:37:56.649Z,59.96
2022-08-03T22:40:24.724Z,60.08
2022-08-03T22:42:53.294Z,60.09
2022-08-03T22:46:06.094Z,59.85
2022-08-03T22:48:11.661Z,59.42
2022-08-03T22:50:40.403Z,59.62
2022-08-03T22:53:08.566Z,59.59
2022-08-03T22:55:37.830Z,59.10
2022-08-03T22:58:05.596Z,59.91
2022-08-03T23:00:33.203Z,60.50
2022-08-03T23:03:03.243Z,60.96
2022-08-03T23:06:01.224Z,61.38
2022-08-03T23:08:27.362Z,61.50
2022-08-03T23:11:02.935Z,62.07
2022-08-03T23:13:33.104Z,62.37
2022-08-03T23:16:01.618Z,62.17
2022-08-03T23:18:37.180Z,62.51
2022-08-03T23:21:11.653Z,62.55
2022-08-03T23:23:43.913Z,62.91
2022-08-03T23:26:13.763Z,63.09
2022-08-03T23:28:46.153Z,63.01
2022-08-03T23:31:15.433Z,63.46
2022-08-03T23:33:45.465Z,63.11
2022-08-03T23:36:31.313Z,62.96
2022-08-03T23:39:03.058Z,62.63
2022-08-03T23:41:31.891Z,61.94
2022-08-03T23:44:01.868Z,62.85
2022-08-03T23:46:31.992Z,62.94
2022-08-03T23:49:00.809Z,62.94
2022-08-03T23:51:40.144Z,61.84
2022-08-03T23:54:15.231Z,62.16
2022-08-03T23:56:55.366Z,61.84
2022-08-03T23:59:31.813Z,61.69
